Terminal Aerodrome Forecast
Issued by NWS Medford, OR

Home | Current Version | Previous Version | Text Only | Print | Product List | Glossary On
Versions: 1 2 3 4 5 6 7 8 9 10 11 12
000
FTUS46 KMFR 050550
TAFMFR
TAF
KMFR 050550Z 0506/0606 VRB04KT P6SM SCT070 BKN150
     FM050900 VRB03KT P6SM SCT025 BKN120
     FM051200 VRB03KT P6SM SCT025 BKN030 BKN120
     FM051800 33005KT P6SM SCT030 BKN040 OVC080
     FM052200 32007KT P6SM -SHRA SCT040 BKN050
     FM060300 35007KT P6SM -SHRA BKN025 BKN040 BKN070=

USA.gov is the U.S. government's official web portal to all federal, state and local government web resources and services.